sensor_id;sensor_type;location;lat;lon;timestamp;pressure;altitude;pressure_sealevel;temperature;humidity
47763;BME280;33526;42.690;23.322;2023-03-04T00:01:33;94954.56;;;4.56;94.59
47763;BME280;33526;42.690;23.322;2023-03-04T00:03:58;95047.78;;;5.12;95.25
47763;BME280;33526;42.690;23.322;2023-03-04T00:06:24;95016.44;;;4.98;94.30
47763;BME280;33526;42.690;23.322;2023-03-04T00:08:49;94988.72;;;4.82;94.33
47763;BME280;33526;42.690;23.322;2023-03-04T00:11:15;95076.69;;;5.44;95.03
47763;BME280;33526;42.690;23.322;2023-03-04T00:13:40;94997.81;;;4.99;94.26
47763;BME280;33526;42.690;23.322;2023-03-04T00:16:06;95003.28;;;5.03;94.25
47763;BME280;33526;42.690;23.322;2023-03-04T00:18:31;95060.41;;;5.46;94.37
47763;BME280;33526;42.690;23.322;2023-03-04T00:20:57;95059.72;;;5.42;93.87
47763;BME280;33526;42.690;23.322;2023-03-04T00:23:23;95011.94;;;5.05;94.40
47763;BME280;33526;42.690;23.322;2023-03-04T00:25:48;95089.41;;;5.58;94.33
47763;BME280;33526;42.690;23.322;2023-03-04T00:28:14;94983.63;;;4.97;93.94
47763;BME280;33526;42.690;23.322;2023-03-04T00:30:39;95051.03;;;5.40;94.24
47763;BME280;33526;42.690;23.322;2023-03-04T00:33:04;95044.28;;;5.41;94.80
47763;BME280;33526;42.690;23.322;2023-03-04T00:35:30;94981.91;;;4.87;94.09
47763;BME280;33526;42.690;23.322;2023-03-04T00:37:55;95082.03;;;5.51;94.30
47763;BME280;33526;42.690;23.322;2023-03-04T00:40:21;94999.28;;;4.87;94.85
47763;BME280;33526;42.690;23.322;2023-03-04T00:42:46;94979.72;;;4.62;95.45
47763;BME280;33526;42.690;23.322;2023-03-04T00:45:12;95016.97;;;4.93;95.51
47763;BME280;33526;42.690;23.322;2023-03-04T00:47:37;95013.66;;;4.98;95.40
47763;BME280;33526;42.690;23.322;2023-03-04T00:50:03;95002.41;;;4.73;94.74
47763;BME280;33526;42.690;23.322;2023-03-04T00:52:28;94985.69;;;4.76;95.15
47763;BME280;33526;42.690;23.322;2023-03-04T00:54:54;94966.22;;;4.64;94.81
47763;BME280;33526;42.690;23.322;2023-03-04T00:57:19;95013.66;;;4.98;94.78
47763;BME280;33526;42.690;23.322;2023-03-04T00:59:46;95062.56;;;5.38;94.57
47763;BME280;33526;42.690;23.322;2023-03-04T01:02:11;95011.50;;;5.06;93.62
47763;BME280;33526;42.690;23.322;2023-03-04T01:04:37;94985.63;;;4.80;93.50
47763;BME280;33526;42.690;23.322;2023-03-04T01:07:03;94954.28;;;4.67;93.50
47763;BME280;33526;42.690;23.322;2023-03-04T01:09:28;94976.78;;;4.85;92.36
47763;BME280;33526;42.690;23.322;2023-03-04T01:11:54;95060.94;;;5.41;91.15
47763;BME280;33526;42.690;23.322;2023-03-04T01:14:19;95019.47;;;5.21;91.58
47763;BME280;33526;42.690;23.322;2023-03-04T01:16:45;94943.91;;;4.71;90.66
47763;BME280;33526;42.690;23.322;2023-03-04T01:19:10;94926.09;;;4.72;90.44
47763;BME280;33526;42.690;23.322;2023-03-04T01:21:36;95054.75;;;5.66;90.14
47763;BME280;33526;42.690;23.322;2023-03-04T01:24:01;94989.41;;;5.19;89.42
47763;BME280;33526;42.690;23.322;2023-03-04T01:26:27;94955.94;;;4.97;89.57
47763;BME280;33526;42.690;23.322;2023-03-04T01:28:52;94962.56;;;5.00;90.11
47763;BME280;33526;42.690;23.322;2023-03-04T01:31:18;95033.69;;;5.52;90.58
47763;BME280;33526;42.690;23.322;2023-03-04T01:33:43;95026.88;;;5.40;90.49
47763;BME280;33526;42.690;23.322;2023-03-04T01:36:09;94941.22;;;4.84;90.15
47763;BME280;33526;42.690;23.322;2023-03-04T01:38:34;95003.41;;;5.28;89.97
47763;BME280;33526;42.690;23.322;2023-03-04T01:41:01;94986.44;;;5.26;90.22
47763;BME280;33526;42.690;23.322;2023-03-04T01:43:29;94986.09;;;5.24;89.60
47763;BME280;33526;42.690;23.322;2023-03-04T01:45:55;94876.22;;;4.55;89.40
47763;BME280;33526;42.690;23.322;2023-03-04T01:48:26;94975.97;;;5.17;89.47
47763;BME280;33526;42.690;23.322;2023-03-04T01:50:52;94962.41;;;4.90;90.29
47763;BME280;33526;42.690;23.322;2023-03-04T01:53:26;94905.06;;;4.42;90.76
47763;BME280;33526;42.690;23.322;2023-03-04T01:55:54;95015.56;;;5.18;91.14
47763;BME280;33526;42.690;23.322;2023-03-04T01:58:23;94929.38;;;4.50;91.65
47763;BME280;33526;42.690;23.322;2023-03-04T02:00:50;95033.66;;;5.23;92.33
47763;BME280;33526;42.690;23.322;2023-03-04T02:03:17;94932.91;;;4.67;92.35
47763;BME280;33526;42.690;23.322;2023-03-04T02:05:48;95036.50;;;5.35;92.52
47763;BME280;33526;42.690;23.322;2023-03-04T02:08:15;95003.78;;;5.14;91.97
47763;BME280;33526;42.690;23.322;2023-03-04T02:10:43;95036.88;;;5.21;91.33
47763;BME280;33526;42.690;23.322;2023-03-04T02:13:09;95015.22;;;5.16;91.68
47763;BME280;33526;42.690;23.322;2023-03-04T02:15:35;95026.38;;;5.29;91.65
47763;BME280;33526;42.690;23.322;2023-03-04T02:18:01;95027.34;;;5.22;92.21
47763;BME280;33526;42.690;23.322;2023-03-04T02:20:44;95022.56;;;5.23;91.96
47763;BME280;33526;42.690;23.322;2023-03-04T02:28:36;94974.03;;;4.85;93.42
47763;BME280;33526;42.690;23.322;2023-03-04T02:31:02;94984.06;;;4.95;93.20
47763;BME280;33526;42.690;23.322;2023-03-04T02:33:28;94956.38;;;4.79;93.26
47763;BME280;33526;42.690;23.322;2023-03-04T02:35:53;95000.84;;;5.05;93.66
47763;BME280;33526;42.690;23.322;2023-03-04T02:38:19;94961.19;;;4.75;92.91
47763;BME280;33526;42.690;23.322;2023-03-04T02:40:47;94913.78;;;4.56;93.00
47763;BME280;33526;42.690;23.322;2023-03-04T02:43:15;95013.81;;;5.24;92.66
47763;BME280;33526;42.690;23.322;2023-03-04T02:45:48;95002.91;;;5.17;92.33
47763;BME280;33526;42.690;23.322;2023-03-04T02:48:17;95013.50;;;5.22;91.83
47763;BME280;33526;42.690;23.322;2023-03-04T02:50:47;94975.75;;;4.95;92.04
47763;BME280;33526;42.690;23.322;2023-03-04T02:53:14;94956.38;;;4.79;92.82
47763;BME280;33526;42.690;23.322;2023-03-04T02:55:40;94992.72;;;4.97;92.47
47763;BME280;33526;42.690;23.322;2023-03-04T02:58:09;94996.34;;;4.94;93.32
47763;BME280;33526;42.690;23.322;2023-03-04T03:00:35;94998.69;;;4.79;94.24
47763;BME280;33526;42.690;23.322;2023-03-04T03:03:01;94987.34;;;4.74;94.48
47763;BME280;33526;42.690;23.322;2023-03-04T03:05:28;94890.91;;;4.03;94.20
47763;BME280;33526;42.690;23.322;2023-03-04T03:07:54;94914.38;;;4.15;94.25
47763;BME280;33526;42.690;23.322;2023-03-04T03:10:20;94962.13;;;4.35;94.88
47763;BME280;33526;42.690;23.322;2023-03-04T03:12:45;94956.94;;;4.37;95.33
47763;BME280;33526;42.690;23.322;2023-03-04T03:15:11;95013.50;;;4.73;96.17
47763;BME280;33526;42.690;23.322;2023-03-04T03:17:37;94930.56;;;4.16;95.96
47763;BME280;33526;42.690;23.322;2023-03-04T03:20:02;94918.94;;;4.05;96.07
47763;BME280;33526;42.690;23.322;2023-03-04T03:22:28;95031.13;;;4.63;96.08
47763;BME280;33526;42.690;23.322;2023-03-04T03:24:54;94939.03;;;4.09;96.05
47763;BME280;33526;42.690;23.322;2023-03-04T03:27:19;94946.97;;;4.07;96.40
47763;BME280;33526;42.690;23.322;2023-03-04T03:29:44;95019.00;;;4.56;96.24
47763;BME280;33526;42.690;23.322;2023-03-04T03:32:10;94919.28;;;3.91;96.63
47763;BME280;33526;42.690;23.322;2023-03-04T03:34:35;94981.25;;;4.30;97.27
47763;BME280;33526;42.690;23.322;2023-03-04T03:37:01;95013.63;;;4.49;96.94
47763;BME280;33526;42.690;23.322;2023-03-04T03:39:26;94931.13;;;3.91;97.72
47763;BME280;33526;42.690;23.322;2023-03-04T03:41:52;94915.78;;;3.87;97.64
47763;BME280;33526;42.690;23.322;2023-03-04T03:44:18;94946.97;;;4.07;97.62
47763;BME280;33526;42.690;23.322;2023-03-04T03:46:43;94961.94;;;4.10;98.28
47763;BME280;33526;42.690;23.322;2023-03-04T03:49:08;94960.81;;;4.07;98.03
47763;BME280;33526;42.690;23.322;2023-03-04T03:51:34;94942.78;;;3.99;97.99
47763;BME280;33526;42.690;23.322;2023-03-04T03:53:59;94931.19;;;3.88;98.36
47763;BME280;33526;42.690;23.322;2023-03-04T03:56:25;94911.78;;;3.71;98.12
47763;BME280;33526;42.690;23.322;2023-03-04T03:58:50;94863.13;;;3.37;98.19
47763;BME280;33526;42.690;23.322;2023-03-04T04:01:15;94935.34;;;3.96;98.48
47763;BME280;33526;42.690;23.322;2023-03-04T04:03:41;94911.13;;;3.83;98.67
47763;BME280;33526;42.690;23.322;2023-03-04T04:06:06;94903.41;;;3.75;98.69
47763;BME280;33526;42.690;23.322;2023-03-04T04:08:32;94951.13;;;4.15;98.63
47763;BME280;33526;42.690;23.322;2023-03-04T04:10:58;94989.81;;;4.35;98.57
47763;BME280;33526;42.690;23.322;2023-03-04T04:13:23;94899.50;;;3.72;98.58
47763;BME280;33526;42.690;23.322;2023-03-04T04:15:52;94988.28;;;4.34;98.37
47763;BME280;33526;42.690;23.322;2023-03-04T04:18:17;94962.63;;;4.14;98.67
47763;BME280;33526;42.690;23.322;2023-03-04T04:20:43;94964.97;;;4.15;98.70
47763;BME280;33526;42.690;23.322;2023-03-04T04:23:08;94884.16;;;3.51;98.87
47763;BME280;33526;42.690;23.322;2023-03-04T04:25:34;94965.88;;;4.09;99.13
47763;BME280;33526;42.690;23.322;2023-03-04T04:27:59;94915.16;;;3.79;99.04
47763;BME280;33526;42.690;23.322;2023-03-04T04:30:26;94969.66;;;4.18;99.51
47763;BME280;33526;42.690;23.322;2023-03-04T04:32:51;94899.00;;;3.77;99.01
47763;BME280;33526;42.690;23.322;2023-03-04T04:35:16;94936.91;;;3.97;98.30
47763;BME280;33526;42.690;23.322;2023-03-04T04:37:42;94871.53;;;3.50;98.30
47763;BME280;33526;42.690;23.322;2023-03-04T04:40:08;94907.94;;;3.65;97.95
47763;BME280;33526;42.690;23.322;2023-03-04T04:42:34;94984.75;;;4.14;97.90
47763;BME280;33526;42.690;23.322;2023-03-04T04:44:59;94950.69;;;3.80;98.08
47763;BME280;33526;42.690;23.322;2023-03-04T04:47:24;94910.47;;;3.39;99.04
47763;BME280;33526;42.690;23.322;2023-03-04T04:49:50;94882.56;;;3.14;99.17
47763;BME280;33526;42.690;23.322;2023-03-04T04:52:16;94909.84;;;3.32;99.45
47763;BME280;33526;42.690;23.322;2023-03-04T04:54:41;94905.06;;;3.32;100.00
47763;BME280;33526;42.690;23.322;2023-03-04T04:57:08;94866.19;;;3.03;100.00
47763;BME280;33526;42.690;23.322;2023-03-04T04:59:34;94838.03;;;2.88;100.00
47763;BME280;33526;42.690;23.322;2023-03-04T05:01:59;94986.00;;;3.93;100.00
47763;BME280;33526;42.690;23.322;2023-03-04T05:04:25;95003.69;;;4.15;100.00
47763;BME280;33526;42.690;23.322;2023-03-04T05:06:50;94926.59;;;3.61;99.79
47763;BME280;33526;42.690;23.322;2023-03-04T05:09:16;94901.81;;;3.37;99.08
47763;BME280;33526;42.690;23.322;2023-03-04T05:11:41;95025.84;;;4.15;99.01
47763;BME280;33526;42.690;23.322;2023-03-04T05:14:07;94994.50;;;4.02;99.30
47763;BME280;33526;42.690;23.322;2023-03-04T05:16:32;94906.28;;;3.51;99.03
47763;BME280;33526;42.690;23.322;2023-03-04T05:18:57;94909.66;;;3.59;98.49
47763;BME280;33526;42.690;23.322;2023-03-04T05:21:23;95022.19;;;4.38;98.17
47763;BME280;33526;42.690;23.322;2023-03-04T05:23:48;94898.81;;;3.68;97.50
47763;BME280;33526;42.690;23.322;2023-03-04T05:26:16;94948.66;;;4.01;97.47
47763;BME280;33526;42.690;23.322;2023-03-04T05:28:42;94909.06;;;3.88;97.52
47763;BME280;33526;42.690;23.322;2023-03-04T05:31:08;94904.56;;;3.94;96.57
47763;BME280;33526;42.690;23.322;2023-03-04T05:33:33;94981.25;;;4.46;96.34
47763;BME280;33526;42.690;23.322;2023-03-04T05:35:59;95008.28;;;4.75;95.88
47763;BME280;33526;42.690;23.322;2023-03-04T05:38:25;94948.47;;;4.45;95.40
47763;BME280;33526;42.690;23.322;2023-03-04T05:40:59;95022.84;;;5.12;94.32
47763;BME280;33526;42.690;23.322;2023-03-04T05:43:26;95025.78;;;5.21;94.05
47763;BME280;33526;42.690;23.322;2023-03-04T05:45:52;94963.28;;;4.87;93.58
47763;BME280;33526;42.690;23.322;2023-03-04T05:48:18;95033.13;;;5.44;92.64
47763;BME280;33526;42.690;23.322;2023-03-04T05:50:44;94969.94;;;5.06;92.06
47763;BME280;33526;42.690;23.322;2023-03-04T05:53:09;94903.06;;;4.42;91.57
47763;BME280;33526;42.690;23.322;2023-03-04T05:55:35;94956.88;;;4.74;91.89
47763;BME280;33526;42.690;23.322;2023-03-04T05:58:00;94976.09;;;4.81;92.29
47763;BME280;33526;42.690;23.322;2023-03-04T06:00:26;94979.91;;;4.87;92.81
47763;BME280;33526;42.690;23.322;2023-03-04T06:02:51;94931.34;;;4.66;92.83
47763;BME280;33526;42.690;23.322;2023-03-04T06:05:17;94938.19;;;4.78;92.41
47763;BME280;33526;42.690;23.322;2023-03-04T06:07:45;94941.22;;;4.84;91.09
47763;BME280;33526;42.690;23.322;2023-03-04T06:10:15;95041.97;;;5.68;90.32
47763;BME280;33526;42.690;23.322;2023-03-04T06:12:41;94968.59;;;5.27;90.79
47763;BME280;33526;42.690;23.322;2023-03-04T06:15:07;94979.81;;;5.36;90.00
47763;BME280;33526;42.690;23.322;2023-03-04T06:17:34;95046.84;;;5.64;89.59
47763;BME280;33526;42.690;23.322;2023-03-04T06:19:59;94953.22;;;4.77;89.75
47763;BME280;33526;42.690;23.322;2023-03-04T06:22:25;94923.50;;;4.65;90.44
47763;BME280;33526;42.690;23.322;2023-03-04T06:24:50;94954.03;;;4.77;90.44
47763;BME280;33526;42.690;23.322;2023-03-04T06:27:16;94974.00;;;5.02;90.32
47763;BME280;33526;42.690;23.322;2023-03-04T06:29:41;95021.94;;;5.48;89.82
47763;BME280;33526;42.690;23.322;2023-03-04T06:32:07;94969.13;;;5.06;90.54
47763;BME280;33526;42.690;23.322;2023-03-04T06:34:32;95032.84;;;5.55;91.85
47763;BME280;33526;42.690;23.322;2023-03-04T06:36:58;95004.00;;;5.36;90.22
47763;BME280;33526;42.690;23.322;2023-03-04T06:39:24;94966.56;;;5.44;87.49
47763;BME280;33526;42.690;23.322;2023-03-04T06:41:51;95002.06;;;5.79;85.33
47763;BME280;33526;42.690;23.322;2023-03-04T06:44:16;95017.75;;;6.15;83.83
47763;BME280;33526;42.690;23.322;2023-03-04T06:46:42;95075.56;;;6.45;82.30
47763;BME280;33526;42.690;23.322;2023-03-04T06:49:07;95008.00;;;5.93;81.70
47763;BME280;33526;42.690;23.322;2023-03-04T06:51:33;95024.69;;;6.06;81.27
47763;BME280;33526;42.690;23.322;2023-03-04T06:53:58;94948.63;;;5.62;81.07
47763;BME280;33526;42.690;23.322;2023-03-04T06:56:24;95068.59;;;6.54;81.64
47763;BME280;33526;42.690;23.322;2023-03-04T06:58:50;94983.22;;;5.86;81.13
47763;BME280;33526;42.690;23.322;2023-03-04T07:03:44;94931.34;;;5.28;80.22
47763;BME280;33526;42.690;23.322;2023-03-04T07:06:11;94950.06;;;5.53;80.44
47763;BME280;33526;42.690;23.322;2023-03-04T07:08:38;95011.84;;;6.00;80.32
47763;BME280;33526;42.690;23.322;2023-03-04T07:11:04;94995.19;;;5.83;80.40
47763;BME280;33526;42.690;23.322;2023-03-04T07:13:29;95030.25;;;6.06;80.14
47763;BME280;33526;42.690;23.322;2023-03-04T07:15:55;95060.38;;;6.21;80.71
47763;BME280;33526;42.690;23.322;2023-03-04T07:18:21;95075.50;;;6.20;81.49
47763;BME280;33526;42.690;23.322;2023-03-04T07:20:46;95059.25;;;6.05;81.57
47763;BME280;33526;42.690;23.322;2023-03-04T07:23:12;95078.41;;;6.29;80.75
47763;BME280;33526;42.690;23.322;2023-03-04T07:25:37;95000.09;;;5.92;80.65
47763;BME280;33526;42.690;23.322;2023-03-04T07:28:03;95076.91;;;6.54;79.72
47763;BME280;33526;42.690;23.322;2023-03-04T07:30:30;95023.84;;;6.22;79.67
47763;BME280;33526;42.690;23.322;2023-03-04T07:32:58;95005.56;;;6.25;79.63
47763;BME280;33526;42.690;23.322;2023-03-04T07:35:24;95030.13;;;6.65;79.25
47763;BME280;33526;42.690;23.322;2023-03-04T07:37:49;95060.00;;;6.61;77.80
47763;BME280;33526;42.690;23.322;2023-03-04T07:40:15;94996.31;;;5.86;78.85
47763;BME280;33526;42.690;23.322;2023-03-04T07:42:40;95026.66;;;6.35;78.88
47763;BME280;33526;42.690;23.322;2023-03-04T07:45:06;94909.13;;;5.58;78.55
47763;BME280;33526;42.690;23.322;2023-03-04T07:47:32;94987.00;;;6.22;77.67
47763;BME280;33526;42.690;23.322;2023-03-04T07:49:58;95001.44;;;6.29;77.84
47763;BME280;33526;42.690;23.322;2023-03-04T07:52:24;95072.91;;;6.80;78.78
47763;BME280;33526;42.690;23.322;2023-03-04T07:54:49;95030.34;;;6.58;77.50
47763;BME280;33526;42.690;23.322;2023-03-04T07:57:14;94981.00;;;5.94;77.02
47763;BME280;33526;42.690;23.322;2023-03-04T07:59:40;95025.41;;;5.94;78.37
47763;BME280;33526;42.690;23.322;2023-03-04T08:02:05;95064.44;;;6.45;77.29
47763;BME280;33526;42.690;23.322;2023-03-04T08:04:31;94986.97;;;5.96;76.98
47763;BME280;33526;42.690;23.322;2023-03-04T08:06:56;94921.38;;;5.73;76.62
47763;BME280;33526;42.690;23.322;2023-03-04T08:09:22;94958.34;;;5.83;76.80
47763;BME280;33526;42.690;23.322;2023-03-04T08:11:48;94969.53;;;6.08;76.57
47763;BME280;33526;42.690;23.322;2023-03-04T08:14:15;95073.94;;;6.86;76.09
47763;BME280;33526;42.690;23.322;2023-03-04T08:16:40;94969.78;;;6.53;75.39
47763;BME280;33526;42.690;23.322;2023-03-04T08:19:06;95079.16;;;7.10;74.83
47763;BME280;33526;42.690;23.322;2023-03-04T08:21:33;95075.25;;;7.07;75.22
47763;BME280;33526;42.690;23.322;2023-03-04T08:24:00;94979.69;;;6.66;73.99
47763;BME280;33526;42.690;23.322;2023-03-04T08:26:38;95038.47;;;6.91;74.07
47763;BME280;33526;42.690;23.322;2023-03-04T08:29:07;95068.03;;;7.10;73.99
47763;BME280;33526;42.690;23.322;2023-03-04T08:31:33;95047.78;;;6.84;73.97
47763;BME280;33526;42.690;23.322;2023-03-04T08:33:59;95001.53;;;6.26;75.64
47763;BME280;33526;42.690;23.322;2023-03-04T08:36:24;95040.00;;;6.53;76.27
47763;BME280;33526;42.690;23.322;2023-03-04T08:38:50;94978.97;;;5.98;76.59
47763;BME280;33526;42.690;23.322;2023-03-04T08:41:15;95008.44;;;6.34;76.03
47763;BME280;33526;42.690;23.322;2023-03-04T08:43:42;94891.88;;;5.79;76.28
47763;BME280;33526;42.690;23.322;2023-03-04T08:46:07;94909.69;;;5.65;76.12
47763;BME280;33526;42.690;23.322;2023-03-04T08:48:33;94977.34;;;6.39;76.61
47763;BME280;33526;42.690;23.322;2023-03-04T08:50:58;95001.47;;;6.81;74.59
47763;BME280;33526;42.690;23.322;2023-03-04T08:53:24;94948.88;;;6.61;73.77
47763;BME280;33526;42.690;23.322;2023-03-04T08:55:51;95006.19;;;7.19;73.76
47763;BME280;33526;42.690;23.322;2023-03-04T08:58:17;95052.34;;;7.64;72.48
47763;BME280;33526;42.690;23.322;2023-03-04T09:00:44;95042.06;;;7.74;72.68
47763;BME280;33526;42.690;23.322;2023-03-04T09:03:13;95017.75;;;7.87;70.97
47763;BME280;33526;42.690;23.322;2023-03-04T09:05:39;95054.47;;;8.17;70.06
47763;BME280;33526;42.690;23.322;2023-03-04T09:08:05;94945.88;;;7.51;70.54
47763;BME280;33526;42.690;23.322;2023-03-04T09:10:31;94911.31;;;7.17;69.78
47763;BME280;33526;42.690;23.322;2023-03-04T09:12:57;94906.41;;;7.43;69.34
47763;BME280;33526;42.690;23.322;2023-03-04T09:15:22;95041.59;;;8.54;70.18
47763;BME280;33526;42.690;23.322;2023-03-04T09:17:48;95020.34;;;8.48;69.50
47763;BME280;33526;42.690;23.322;2023-03-04T09:20:13;94950.44;;;8.01;68.25
47763;BME280;33526;42.690;23.322;2023-03-04T09:22:39;94899.16;;;7.90;67.16
47763;BME280;33526;42.690;23.322;2023-03-04T09:25:06;95032.44;;;9.26;66.42
47763;BME280;33526;42.690;23.322;2023-03-04T09:27:32;95032.06;;;9.14;65.87
47763;BME280;33526;42.690;23.322;2023-03-04T09:29:58;94883.66;;;8.11;66.49
47763;BME280;33526;42.690;23.322;2023-03-04T09:32:24;95032.84;;;9.06;66.67
47763;BME280;33526;42.690;23.322;2023-03-04T09:34:51;94972.50;;;8.80;65.66
47763;BME280;33526;42.690;23.322;2023-03-04T09:37:17;94990.22;;;9.05;65.54
47763;BME280;33526;42.690;23.322;2023-03-04T09:39:44;95030.25;;;9.21;64.45
47763;BME280;33526;42.690;23.322;2023-03-04T09:42:29;94982.84;;;8.80;66.02
47763;BME280;33526;42.690;23.322;2023-03-04T09:44:57;94932.72;;;8.49;64.74
47763;BME280;33526;42.690;23.322;2023-03-04T09:47:25;94911.97;;;8.50;64.84
47763;BME280;33526;42.690;23.322;2023-03-04T09:49:57;94926.53;;;8.45;63.94
47763;BME280;33526;42.690;23.322;2023-03-04T09:52:33;94953.00;;;8.90;64.76
47763;BME280;33526;42.690;23.322;2023-03-04T10:00:53;94943.25;;;9.04;63.98
47763;BME280;33526;42.690;23.322;2023-03-04T10:03:23;94878.19;;;8.38;64.19
47763;BME280;33526;42.690;23.322;2023-03-04T10:05:54;94957.56;;;8.65;64.65
47763;BME280;33526;42.690;23.322;2023-03-04T10:11:42;95003.44;;;9.32;65.28
47763;BME280;33526;42.690;23.322;2023-03-04T10:14:32;94985.94;;;9.32;64.62
47763;BME280;33526;42.690;23.322;2023-03-04T10:17:07;94996.03;;;9.66;64.91
47763;BME280;33526;42.690;23.322;2023-03-04T10:19:47;94996.34;;;9.50;64.41
47763;BME280;33526;42.690;23.322;2023-03-04T10:24:57;94960.53;;;9.39;64.29
47763;BME280;33526;42.690;23.322;2023-03-04T10:27:23;95001.38;;;9.14;65.21
47763;BME280;33526;42.690;23.322;2023-03-04T10:29:50;94992.63;;;8.85;66.90
47763;BME280;33526;42.690;23.322;2023-03-04T10:32:18;94988.72;;;9.23;66.05
47763;BME280;33526;42.690;23.322;2023-03-04T10:34:44;94908.81;;;8.70;66.38
47763;BME280;33526;42.690;23.322;2023-03-04T10:37:09;94955.22;;;9.13;66.02
47763;BME280;33526;42.690;23.322;2023-03-04T10:39:41;94907.41;;;8.65;66.22
47763;BME280;33526;42.690;23.322;2023-03-04T10:42:33;94968.88;;;9.21;65.59
47763;BME280;33526;42.690;23.322;2023-03-04T10:45:01;94881.75;;;8.89;66.12
47763;BME280;33526;42.690;23.322;2023-03-04T10:47:30;94894.63;;;9.23;65.15
47763;BME280;33526;42.690;23.322;2023-03-04T10:50:02;94881.31;;;9.46;64.50
47763;BME280;33526;42.690;23.322;2023-03-04T10:52:29;94945.66;;;9.61;64.61
47763;BME280;33526;42.690;23.322;2023-03-04T10:55:03;94872.00;;;8.93;65.02
47763;BME280;33526;42.690;23.322;2023-03-04T10:57:40;94902.75;;;8.71;65.83
47763;BME280;33526;42.690;23.322;2023-03-04T11:02:44;94916.53;;;8.75;66.83
47763;BME280;33526;42.690;23.322;2023-03-04T11:07:48;94865.59;;;8.74;66.21
47763;BME280;33526;42.690;23.322;2023-03-04T11:12:51;94921.44;;;9.48;65.67
47763;BME280;33526;42.690;23.322;2023-03-04T11:15:22;94917.41;;;9.68;64.95
47763;BME280;33526;42.690;23.322;2023-03-04T11:18:10;94863.47;;;9.25;64.66
47763;BME280;33526;42.690;23.322;2023-03-04T11:20:42;94831.25;;;9.05;64.99
47763;BME280;33526;42.690;23.322;2023-03-04T11:26:03;94902.50;;;9.80;64.27
47763;BME280;33526;42.690;23.322;2023-03-04T11:34:51;94886.72;;;9.03;66.53
47763;BME280;33526;42.690;23.322;2023-03-04T11:37:28;94847.50;;;8.88;66.27
47763;BME280;33526;42.690;23.322;2023-03-04T11:40:14;94794.69;;;8.75;66.05
47763;BME280;33526;42.690;23.322;2023-03-04T11:42:44;94727.00;;;8.47;65.82
47763;BME280;33526;42.690;23.322;2023-03-04T11:45:15;94824.88;;;9.32;65.48
47763;BME280;33526;42.690;23.322;2023-03-04T11:50:28;94821.91;;;9.64;64.64
47763;BME280;33526;42.690;23.322;2023-03-04T12:11:11;94854.28;;;9.80;64.72
47763;BME280;33526;42.690;23.322;2023-03-04T12:44:30;94826.25;;;9.55;66.98
47763;BME280;33526;42.690;23.322;2023-03-04T12:56:00;94758.06;;;9.47;65.52
47763;BME280;33526;42.690;23.322;2023-03-04T13:18:35;94783.84;;;9.75;64.85
47763;BME280;33526;42.690;23.322;2023-03-04T13:24:45;94789.31;;;9.70;65.79
47763;BME280;33526;42.690;23.322;2023-03-04T13:28:33;94779.66;;;9.80;65.03
47763;BME280;33526;42.690;23.322;2023-03-04T14:10:29;94746.50;;;9.73;67.78
47763;BME280;33526;42.690;23.322;2023-03-04T14:13:07;94620.59;;;8.86;66.74
47763;BME280;33526;42.690;23.322;2023-03-04T14:16:09;94667.72;;;9.35;66.45
47763;BME280;33526;42.690;23.322;2023-03-04T14:19:04;94741.47;;;9.86;66.26
47763;BME280;33526;42.690;23.322;2023-03-04T14:51:55;94706.50;;;10.24;66.31
47763;BME280;33526;42.690;23.322;2023-03-04T14:55:20;94699.16;;;10.12;64.97
47763;BME280;33526;42.690;23.322;2023-03-04T14:58:28;94621.56;;;9.59;64.56
47763;BME280;33526;42.690;23.322;2023-03-04T15:01:20;94707.13;;;10.28;64.30
47763;BME280;33526;42.690;23.322;2023-03-04T15:04:17;94703.19;;;10.11;67.06
47763;BME280;33526;42.690;23.322;2023-03-04T15:06:49;94662.88;;;10.03;66.38
47763;BME280;33526;42.690;23.322;2023-03-04T15:12:05;94598.78;;;9.60;65.78
47763;BME280;33526;42.690;23.322;2023-03-04T15:14:54;94633.19;;;9.90;65.70
47763;BME280;33526;42.690;23.322;2023-03-04T15:25:14;94635.41;;;9.53;65.11
47763;BME280;33526;42.690;23.322;2023-03-04T15:27:41;94597.13;;;9.11;65.66
47763;BME280;33526;42.690;23.322;2023-03-04T15:30:18;94680.84;;;9.77;66.19
47763;BME280;33526;42.690;23.322;2023-03-04T15:32:44;94686.09;;;9.85;66.99
47763;BME280;33526;42.690;23.322;2023-03-04T15:35:14;94584.41;;;9.19;66.96
47763;BME280;33526;42.690;23.322;2023-03-04T15:37:51;94585.38;;;9.07;66.53
47763;BME280;33526;42.690;23.322;2023-03-04T15:43:14;94590.53;;;8.99;67.08
47763;BME280;33526;42.690;23.322;2023-03-04T15:48:49;94590.25;;;8.88;67.59
47763;BME280;33526;42.690;23.322;2023-03-04T15:51:19;94540.34;;;8.47;68.02
47763;BME280;33526;42.690;23.322;2023-03-04T15:53:49;94521.50;;;8.23;68.19
47763;BME280;33526;42.690;23.322;2023-03-04T15:56:21;94580.69;;;8.70;69.21
47763;BME280;33526;42.690;23.322;2023-03-04T15:58:52;94592.31;;;8.69;69.41
47763;BME280;33526;42.690;23.322;2023-03-04T16:01:21;94565.13;;;8.45;70.41
47763;BME280;33526;42.690;23.322;2023-03-04T16:03:48;94494.75;;;7.98;69.84
47763;BME280;33526;42.690;23.322;2023-03-04T16:06:14;94663.94;;;9.05;69.85
47763;BME280;33526;42.690;23.322;2023-03-04T16:08:43;94599.28;;;8.64;70.37
47763;BME280;33526;42.690;23.322;2023-03-04T16:11:15;94513.94;;;7.96;69.81
47763;BME280;33526;42.690;23.322;2023-03-04T16:13:42;94597.13;;;8.50;70.79
47763;BME280;33526;42.690;23.322;2023-03-04T16:16:10;94596.97;;;8.53;71.41
47763;BME280;33526;42.690;23.322;2023-03-04T16:18:39;94575.16;;;8.33;70.43
47763;BME280;33526;42.690;23.322;2023-03-04T16:21:07;94616.31;;;8.57;70.91
47763;BME280;33526;42.690;23.322;2023-03-04T16:23:38;94522.00;;;7.94;70.63
47763;BME280;33526;42.690;23.322;2023-03-04T16:26:10;94592.19;;;8.26;70.28
47763;BME280;33526;42.690;23.322;2023-03-04T16:28:36;94637.06;;;8.56;70.24
47763;BME280;33526;42.690;23.322;2023-03-04T16:31:02;94551.06;;;7.84;70.32
47763;BME280;33526;42.690;23.322;2023-03-04T16:33:30;94534.66;;;7.77;71.01